createdAt,value
2018-09-11T00:01:05.509Z,4.83
2018-09-11T00:03:32.851Z,5.23
2018-09-11T00:06:00.050Z,4.60
2018-09-11T00:08:27.453Z,5.43
2018-09-11T00:10:54.901Z,4.57
2018-09-11T00:13:22.114Z,4.30
2018-09-11T00:15:49.518Z,4.80
2018-09-11T00:18:17.112Z,4.43
2018-09-11T00:20:44.306Z,4.67
2018-09-11T00:23:11.529Z,4.67
2018-09-11T00:25:38.848Z,4.97
2018-09-11T00:28:06.088Z,4.77
2018-09-11T00:30:33.282Z,4.70
2018-09-11T00:33:00.453Z,5.33
2018-09-11T00:35:27.784Z,4.73
2018-09-11T00:37:55.047Z,4.50
2018-09-11T00:40:22.264Z,4.70
2018-09-11T00:42:49.468Z,4.80
2018-09-11T00:45:16.660Z,4.43
2018-09-11T00:47:43.881Z,4.77
2018-09-11T00:50:11.116Z,4.40
2018-09-11T00:52:38.449Z,4.87
2018-09-11T00:55:05.757Z,5.00
2018-09-11T00:57:33.030Z,4.90
2018-09-11T01:00:00.202Z,4.70
2018-09-11T01:02:27.649Z,4.97
2018-09-11T01:04:54.956Z,4.63
2018-09-11T01:07:22.226Z,4.20
2018-09-11T01:09:49.447Z,4.67
2018-09-11T01:12:16.744Z,4.63
2018-09-11T01:14:44.206Z,4.67
2018-09-11T01:17:11.471Z,3.90
2018-09-11T01:19:39.084Z,5.00
2018-09-11T01:22:06.294Z,4.97
2018-09-11T01:24:33.534Z,5.27
2018-09-11T01:27:00.744Z,5.53
2018-09-11T01:29:27.953Z,4.80
2018-09-11T01:31:55.180Z,5.27
2018-09-11T01:34:22.659Z,5.23
2018-09-11T01:36:49.982Z,4.87
2018-09-11T01:39:17.191Z,5.17
2018-09-11T01:41:44.406Z,5.00
2018-09-11T01:44:11.603Z,4.70
2018-09-11T01:46:38.804Z,5.03
2018-09-11T01:49:06.007Z,5.10
2018-09-11T01:51:33.547Z,5.73
2018-09-11T01:54:00.865Z,4.90
2018-09-11T01:56:28.636Z,4.90
2018-09-11T01:58:55.830Z,5.27
2018-09-11T02:01:22.980Z,4.93
2018-09-11T02:03:50.449Z,5.03
2018-09-11T02:06:17.926Z,4.90
2018-09-11T02:08:45.245Z,4.60
2018-09-11T02:11:12.500Z,4.83
2018-09-11T02:13:39.828Z,5.40
2018-09-11T02:16:07.090Z,4.90
2018-09-11T02:18:34.302Z,5.13
2018-09-11T02:21:01.986Z,4.47
2018-09-11T02:23:29.228Z,4.90
2018-09-11T02:25:56.537Z,5.20
2018-09-11T02:28:23.922Z,5.23
2018-09-11T02:30:51.407Z,4.67
2018-09-11T02:33:18.660Z,5.30
2018-09-11T02:35:45.891Z,5.37
2018-09-11T02:38:13.040Z,5.20
2018-09-11T02:40:40.328Z,5.10
2018-09-11T02:43:07.782Z,4.90
2018-09-11T02:45:34.975Z,4.80
2018-09-11T02:48:02.174Z,5.03
2018-09-11T02:50:29.412Z,5.00
2018-09-11T02:52:56.581Z,5.03
2018-09-11T02:55:23.941Z,4.60
2018-09-11T02:57:51.115Z,4.60
2018-09-11T03:00:18.308Z,5.20
2018-09-11T03:02:45.677Z,5.23
2018-09-11T03:05:12.914Z,5.10
2018-09-11T03:07:40.333Z,5.30
2018-09-11T03:10:07.534Z,5.60
2018-09-11T03:12:34.972Z,6.13
2018-09-11T03:15:02.176Z,5.60
2018-09-11T03:17:29.442Z,6.20
2018-09-11T03:19:58.215Z,5.17
2018-09-11T03:22:25.694Z,5.57
2018-09-11T03:24:52.896Z,5.90
2018-09-11T03:27:20.177Z,5.83
2018-09-11T03:29:47.428Z,5.63
2018-09-11T03:32:14.636Z,4.60
2018-09-11T03:34:41.864Z,5.03
2018-09-11T03:37:09.059Z,5.20
2018-09-11T03:39:36.320Z,4.80
2018-09-11T03:42:03.526Z,5.23
2018-09-11T03:44:31.050Z,5.50
2018-09-11T03:46:58.318Z,5.00
2018-09-11T03:49:25.999Z,4.70
2018-09-11T03:51:53.185Z,5.40
2018-09-11T03:54:20.475Z,5.47
2018-09-11T03:56:47.950Z,5.20
2018-09-11T03:59:15.873Z,5.27
2018-09-11T04:01:43.350Z,5.23
2018-09-11T04:04:10.820Z,4.93
2018-09-11T04:08:02.312Z,5.60
2018-09-11T04:10:29.522Z,5.90
2018-09-11T04:12:56.786Z,6.20
2018-09-11T04:15:24.035Z,6.60
2018-09-11T04:17:51.214Z,6.17
2018-09-11T04:20:18.442Z,6.30
2018-09-11T04:22:45.801Z,5.57
2018-09-11T04:25:13.030Z,5.40
2018-09-11T04:27:41.113Z,6.37
2018-09-11T04:30:08.364Z,6.07
2018-09-11T04:32:35.552Z,6.00
2018-09-11T04:35:02.778Z,6.63
2018-09-11T04:37:29.989Z,5.60
2018-09-11T04:39:57.436Z,6.50
2018-09-11T04:42:24.622Z,6.47
2018-09-11T04:44:51.814Z,6.23
2018-09-11T04:47:19.029Z,5.87
2018-09-11T04:49:46.260Z,6.97
2018-09-11T04:52:13.517Z,6.50
2018-09-11T04:54:41.505Z,6.90
2018-09-11T04:57:09.047Z,7.40
2018-09-11T04:59:36.235Z,6.83
2018-09-11T05:02:03.795Z,6.00
2018-09-11T05:04:31.041Z,6.50
2018-09-11T05:06:58.282Z,7.73
2018-09-11T05:09:25.480Z,7.70
2018-09-11T05:11:52.786Z,6.53
2018-09-11T05:14:19.998Z,7.07
2018-09-11T05:16:47.296Z,8.37
2018-09-11T05:19:15.209Z,7.63
2018-09-11T05:21:42.487Z,6.97
2018-09-11T05:24:09.731Z,7.70
2018-09-11T05:26:37.032Z,7.73
2018-09-11T05:29:04.213Z,7.93
2018-09-11T05:31:31.474Z,8.03
2018-09-11T05:35:23.207Z,8.43
2018-09-11T05:37:50.457Z,7.63
2018-09-11T05:40:17.717Z,7.90
2018-09-11T05:42:45.147Z,8.37
2018-09-11T05:45:12.349Z,8.17
2018-09-11T05:47:39.895Z,8.00
2018-09-11T05:50:07.068Z,8.30
2018-09-11T05:52:34.305Z,8.83
2018-09-11T05:55:01.600Z,7.80
2018-09-11T05:57:28.810Z,8.20
2018-09-11T05:59:56.142Z,9.30
2018-09-11T06:02:23.392Z,8.57
2018-09-11T06:04:50.824Z,8.73
2018-09-11T06:07:18.072Z,8.40
2018-09-11T06:09:45.915Z,8.20
2018-09-11T06:12:13.142Z,7.97
2018-09-11T06:14:40.661Z,8.03
2018-09-11T06:17:08.091Z,8.03
2018-09-11T06:19:35.363Z,7.40
2018-09-11T06:22:02.557Z,7.90
2018-09-11T06:24:30.106Z,8.37
2018-09-11T06:26:57.334Z,6.83
2018-09-11T06:29:24.566Z,7.63
2018-09-11T06:31:51.946Z,8.40
2018-09-11T06:34:19.497Z,8.10
2018-09-11T06:36:47.537Z,7.87
2018-09-11T06:39:14.926Z,11.30
2018-09-11T06:41:42.231Z,8.37
2018-09-11T06:44:09.520Z,8.37
2018-09-11T06:46:36.795Z,8.63
2018-09-11T06:49:04.488Z,8.97
2018-09-11T06:51:33.140Z,8.27
2018-09-11T06:54:00.401Z,7.67
2018-09-11T06:56:28.049Z,8.60
2018-09-11T06:58:55.254Z,8.40
2018-09-11T07:01:22.692Z,10.00
2018-09-11T07:03:50.495Z,9.60
2018-09-11T07:06:17.803Z,7.33
2018-09-11T07:08:45.035Z,8.23
2018-09-11T07:11:12.385Z,8.10
2018-09-11T07:13:39.841Z,9.40
2018-09-11T07:16:07.435Z,8.20
2018-09-11T07:18:34.640Z,7.93
2018-09-11T07:21:01.953Z,8.07
2018-09-11T07:23:29.170Z,6.93
2018-09-11T07:25:56.475Z,8.27
2018-09-11T07:28:23.767Z,6.83
2018-09-11T07:30:51.417Z,7.33
2018-09-11T07:33:18.743Z,7.13
2018-09-11T07:35:45.954Z,7.67
2018-09-11T07:38:13.864Z,6.53
2018-09-11T07:40:41.177Z,6.40
2018-09-11T07:43:08.411Z,6.90
2018-09-11T07:45:35.704Z,6.07
2018-09-11T07:48:03.042Z,4.63
2018-09-11T07:50:30.603Z,6.03
2018-09-11T07:52:57.994Z,5.73
2018-09-11T07:55:25.164Z,6.03
2018-09-11T07:57:52.485Z,5.10
2018-09-11T08:00:19.797Z,9.27
2018-09-11T08:02:47.236Z,5.20
2018-09-11T08:05:14.522Z,8.93
2018-09-11T08:07:41.965Z,4.50
2018-09-11T08:10:09.348Z,4.73
2018-09-11T08:12:37.083Z,4.90
2018-09-11T08:15:04.566Z,5.00
2018-09-11T08:17:31.913Z,4.40
2018-09-11T08:19:59.459Z,4.90
2018-09-11T08:22:26.617Z,4.07
2018-09-11T08:24:53.907Z,4.50
2018-09-11T08:27:21.080Z,3.90
2018-09-11T08:29:49.012Z,3.60
2018-09-11T08:32:16.448Z,4.03
2018-09-11T08:34:43.941Z,2.80
2018-09-11T08:37:11.135Z,4.10
2018-09-11T08:39:38.419Z,2.63
2018-09-11T08:42:06.278Z,2.97
2018-09-11T08:44:33.639Z,2.77
2018-09-11T08:47:01.397Z,2.93
2018-09-11T08:49:28.971Z,2.87
2018-09-11T08:51:56.419Z,2.63
2018-09-11T08:54:24.059Z,3.10
2018-09-11T08:56:51.335Z,2.60
2018-09-11T08:59:18.803Z,2.53
2018-09-11T09:01:46.139Z,2.70
2018-09-11T09:04:13.869Z,2.60
2018-09-11T09:06:41.186Z,2.93
2018-09-11T09:09:09.206Z,2.47
2018-09-11T09:11:36.832Z,2.27
2018-09-11T09:14:04.172Z,2.20
2018-09-11T09:16:31.385Z,2.37
2018-09-11T09:18:59.091Z,2.23
2018-09-11T09:21:26.388Z,2.03
2018-09-11T09:23:53.703Z,2.60
2018-09-11T09:26:20.920Z,2.27
2018-09-11T09:28:48.114Z,3.17
2018-09-11T09:31:15.349Z,2.70
2018-09-11T09:33:42.559Z,3.80
2018-09-11T09:36:09.846Z,5.40
2018-09-11T09:38:37.200Z,5.97
2018-09-11T09:41:04.451Z,3.40
2018-09-11T09:43:31.708Z,3.13
2018-09-11T09:45:59.077Z,3.23
2018-09-11T09:48:26.416Z,4.10
2018-09-11T09:50:53.715Z,3.20
2018-09-11T09:53:21.153Z,2.47
2018-09-11T09:55:48.683Z,3.63
2018-09-11T09:58:15.917Z,3.03
2018-09-11T10:00:48.365Z,2.67
2018-09-11T10:03:15.655Z,3.00
2018-09-11T10:05:42.898Z,4.40
2018-09-11T10:08:10.119Z,3.00
2018-09-11T10:10:37.451Z,3.20
2018-09-11T10:13:04.843Z,3.37
2018-09-11T10:15:32.159Z,2.37
2018-09-11T10:17:59.420Z,3.00
2018-09-11T10:20:26.834Z,3.70
2018-09-11T10:22:54.070Z,3.17
2018-09-11T10:25:21.372Z,2.73
2018-09-11T10:27:48.543Z,3.10
2018-09-11T10:30:15.854Z,2.10
2018-09-11T10:32:43.125Z,3.40
2018-09-11T10:35:10.320Z,3.90
2018-09-11T10:37:37.897Z,3.07
2018-09-11T10:40:05.325Z,2.50
2018-09-11T10:42:32.822Z,3.23
2018-09-11T10:45:00.093Z,3.30
2018-09-11T10:47:27.605Z,2.30
2018-09-11T10:49:54.976Z,3.20
2018-09-11T10:52:22.184Z,2.50
2018-09-11T10:54:49.398Z,2.17
2018-09-11T10:57:16.707Z,1.80
2018-09-11T10:59:43.936Z,2.30
2018-09-11T11:02:11.133Z,2.00
2018-09-11T11:04:38.762Z,2.33
2018-09-11T11:07:06.122Z,2.13
2018-09-11T11:09:33.989Z,1.97
2018-09-11T11:12:01.654Z,2.27
2018-09-11T11:14:28.854Z,2.27
2018-09-11T11:16:56.157Z,3.10
2018-09-11T11:19:23.379Z,2.50
2018-09-11T11:21:50.697Z,2.40
2018-09-11T11:24:18.015Z,2.33
2018-09-11T11:26:45.268Z,2.60
2018-09-11T11:29:12.506Z,2.73
2018-09-11T11:31:40.179Z,2.23
2018-09-11T11:34:07.389Z,2.17
2018-09-11T11:36:34.674Z,2.17
2018-09-11T11:39:01.843Z,2.10
2018-09-11T11:41:29.186Z,2.40
2018-09-11T11:43:56.655Z,2.30
2018-09-11T11:46:23.850Z,2.10
2018-09-11T11:48:51.045Z,2.03
2018-09-11T11:51:18.541Z,2.40
2018-09-11T11:53:45.801Z,2.33
2018-09-11T11:56:13.360Z,2.73
2018-09-11T11:58:41.054Z,1.83
2018-09-11T12:01:08.403Z,2.10
2018-09-11T12:03:35.738Z,2.30
2018-09-11T12:06:03.474Z,2.83
2018-09-11T12:08:31.343Z,2.20
2018-09-11T12:10:58.529Z,1.93
2018-09-11T12:13:25.735Z,2.40
2018-09-11T12:15:53.177Z,2.23
2018-09-11T12:18:20.398Z,2.00
2018-09-11T12:20:48.076Z,2.00
2018-09-11T12:23:15.513Z,1.93
2018-09-11T12:25:43.051Z,3.23
2018-09-11T12:28:10.497Z,2.10
2018-09-11T12:30:37.699Z,2.17
2018-09-11T12:33:04.953Z,2.00
2018-09-11T12:35:32.229Z,2.80
2018-09-11T12:37:59.585Z,2.37
2018-09-11T12:40:26.818Z,2.40
2018-09-11T12:42:54.122Z,2.20
2018-09-11T12:45:21.324Z,2.33
2018-09-11T12:47:48.853Z,2.80
2018-09-11T12:50:15.981Z,2.00
2018-09-11T12:52:43.760Z,2.10
2018-09-11T12:55:11.392Z,3.03
2018-09-11T12:57:38.709Z,2.63
2018-09-11T13:00:06.881Z,2.50
2018-09-11T13:02:34.242Z,2.23
2018-09-11T13:05:01.574Z,2.50
2018-09-11T13:07:29.038Z,2.13
2018-09-11T13:09:56.389Z,2.40
2018-09-11T13:12:23.707Z,2.67
2018-09-11T13:14:50.962Z,2.60
2018-09-11T13:17:18.545Z,2.13
2018-09-11T13:19:46.149Z,2.93
2018-09-11T13:22:13.432Z,2.60
2018-09-11T13:24:40.778Z,2.57
2018-09-11T13:27:08.075Z,2.47
2018-09-11T13:29:35.378Z,2.60
2018-09-11T13:32:02.619Z,2.60
2018-09-11T13:34:29.936Z,2.60
2018-09-11T13:36:57.444Z,2.20
2018-09-11T13:39:24.696Z,2.07
2018-09-11T13:41:51.978Z,2.47
2018-09-11T13:44:19.257Z,2.33
2018-09-11T13:46:46.529Z,2.27
2018-09-11T13:49:13.813Z,2.23
2018-09-11T13:54:19.785Z,2.10
2018-09-11T13:56:47.429Z,2.40
2018-09-11T13:59:15.433Z,2.67
2018-09-11T14:01:42.769Z,2.73
2018-09-11T14:04:10.325Z,2.50
2018-09-11T14:06:37.898Z,2.13
2018-09-11T14:09:07.434Z,2.53
2018-09-11T14:11:34.715Z,2.97
2018-09-11T14:14:01.882Z,2.13
2018-09-11T14:16:29.151Z,2.90
2018-09-11T14:18:56.348Z,2.20
2018-09-11T14:21:23.703Z,2.40
2018-09-11T14:23:51.953Z,3.07
2018-09-11T14:26:19.457Z,2.37
2018-09-11T14:28:48.550Z,2.40
2018-09-11T14:31:15.823Z,2.87
2018-09-11T14:33:43.207Z,2.77
2018-09-11T14:36:10.441Z,2.67
2018-09-11T14:38:37.682Z,2.93
2018-09-11T14:41:04.925Z,2.50
2018-09-11T14:43:32.263Z,2.30
2018-09-11T14:45:59.450Z,2.63
2018-09-11T14:48:26.739Z,2.70
2018-09-11T14:50:53.968Z,3.03
2018-09-11T14:53:21.368Z,2.67
2018-09-11T14:55:48.593Z,2.87
2018-09-11T14:58:16.350Z,2.87
2018-09-11T15:00:43.711Z,3.57
2018-09-11T15:03:11.204Z,2.80
2018-09-11T15:05:38.398Z,2.90
2018-09-11T15:08:05.642Z,3.50
2018-09-11T15:11:57.132Z,3.07
2018-09-11T15:14:24.397Z,2.80
2018-09-11T15:16:51.689Z,3.50
2018-09-11T15:19:18.998Z,2.40
2018-09-11T15:21:46.162Z,3.17
2018-09-11T15:24:13.513Z,2.57
2018-09-11T15:26:40.739Z,2.80
2018-09-11T15:29:07.964Z,3.07
2018-09-11T15:31:35.202Z,2.40
2018-09-11T15:34:02.431Z,2.57
2018-09-11T15:36:29.783Z,2.90
2018-09-11T15:38:57.079Z,3.20
2018-09-11T15:41:24.338Z,2.63
2018-09-11T15:43:51.669Z,2.50
2018-09-11T15:46:18.928Z,2.93
2018-09-11T15:48:46.114Z,3.60
2018-09-11T15:51:13.328Z,3.00
2018-09-11T15:53:40.530Z,2.73
2018-09-11T15:56:07.786Z,2.67
2018-09-11T15:58:35.134Z,2.70
2018-09-11T16:01:02.390Z,2.43
2018-09-11T16:03:29.599Z,3.00
2018-09-11T16:05:56.884Z,3.13
2018-09-11T16:08:24.131Z,3.37
2018-09-11T16:10:51.490Z,2.80
2018-09-11T16:13:18.754Z,3.70
2018-09-11T16:15:47.814Z,3.90
2018-09-11T16:18:15.070Z,4.63
2018-09-11T16:20:42.336Z,3.50
2018-09-11T16:23:09.642Z,3.43
2018-09-11T16:25:36.894Z,2.97
2018-09-11T16:28:04.392Z,3.07
2018-09-11T16:30:31.657Z,3.17
2018-09-11T16:32:58.981Z,3.60
2018-09-11T16:35:26.932Z,5.30
2018-09-11T16:37:54.197Z,5.30
2018-09-11T16:40:21.415Z,3.20
2018-09-11T16:42:49.170Z,4.47
2018-09-11T16:45:16.859Z,4.20
2018-09-11T16:47:44.117Z,3.73
2018-09-11T16:50:12.034Z,4.13
2018-09-11T16:52:39.310Z,3.10
2018-09-11T16:55:06.525Z,3.20
2018-09-11T16:57:33.897Z,3.67
2018-09-11T17:00:01.178Z,6.67
2018-09-11T17:02:28.938Z,3.90
2018-09-11T17:04:56.222Z,3.83
2018-09-11T17:07:23.941Z,4.53
2018-09-11T17:09:51.815Z,4.00
2018-09-11T17:12:19.213Z,5.00
2018-09-11T17:14:46.606Z,3.30
2018-09-11T17:17:13.842Z,4.50
2018-09-11T17:19:42.154Z,6.20
2018-09-11T17:22:09.379Z,5.23
2018-09-11T17:24:37.635Z,4.33
2018-09-11T17:27:04.905Z,4.57
2018-09-11T17:29:32.579Z,4.27
2018-09-11T17:31:59.840Z,3.90
2018-09-11T17:34:27.062Z,4.43
2018-09-11T17:36:54.290Z,3.43
2018-09-11T17:39:21.560Z,3.70
2018-09-11T17:41:48.806Z,4.33
2018-09-11T17:44:16.019Z,5.80
2018-09-11T17:46:43.802Z,3.50
2018-09-11T17:49:11.269Z,3.67
2018-09-11T17:51:38.969Z,4.53
2018-09-11T17:54:06.158Z,3.43
2018-09-11T17:56:33.743Z,3.60
2018-09-11T17:59:00.913Z,3.30
2018-09-11T18:01:28.382Z,3.40
2018-09-11T18:03:55.664Z,3.57
2018-09-11T18:06:22.875Z,2.93
2018-09-11T18:08:50.239Z,3.60
2018-09-11T18:11:17.607Z,3.50
2018-09-11T18:13:44.867Z,3.47
2018-09-11T18:16:12.167Z,3.70
2018-09-11T18:18:39.518Z,3.90
2018-09-11T18:21:06.791Z,4.00
2018-09-11T18:23:34.074Z,3.10
2018-09-11T18:26:01.320Z,5.00
2018-09-11T18:28:28.964Z,3.60
2018-09-11T18:30:56.432Z,4.53
2018-09-11T18:33:23.747Z,4.27
2018-09-11T18:35:50.968Z,4.93
2018-09-11T18:38:18.398Z,3.93
2018-09-11T18:40:45.624Z,4.00
2018-09-11T18:43:12.926Z,3.67
2018-09-11T18:45:40.235Z,3.60
2018-09-11T18:48:07.555Z,3.63
2018-09-11T18:50:35.163Z,3.60
2018-09-11T18:53:02.607Z,4.10
2018-09-11T18:55:29.847Z,3.37
2018-09-11T18:57:57.149Z,3.37
2018-09-11T19:00:29.214Z,3.80
2018-09-11T19:02:57.074Z,3.60
2018-09-11T19:05:24.455Z,4.47
2018-09-11T19:07:51.727Z,3.70
2018-09-11T19:10:19.272Z,4.07
2018-09-11T19:12:46.579Z,3.63
2018-09-11T19:15:13.867Z,3.83
2018-09-11T19:17:41.339Z,3.47
2018-09-11T19:20:08.886Z,3.33
2018-09-11T19:22:36.052Z,4.10
2018-09-11T19:25:03.505Z,4.10
2018-09-11T19:27:30.855Z,3.77
2018-09-11T19:29:58.168Z,3.40
2018-09-11T19:32:25.601Z,3.83
2018-09-11T19:34:52.962Z,3.20
2018-09-11T19:37:20.188Z,3.67
2018-09-11T19:39:47.497Z,3.70
2018-09-11T19:42:14.779Z,3.80
2018-09-11T19:44:42.057Z,3.20
2018-09-11T19:47:10.060Z,3.77
2018-09-11T19:49:37.461Z,4.43
2018-09-11T19:52:04.673Z,4.30
2018-09-11T19:54:32.093Z,4.13
2018-09-11T19:56:59.441Z,3.60
2018-09-11T19:59:26.604Z,3.53
2018-09-11T20:01:53.945Z,4.60
2018-09-11T20:04:21.383Z,4.33
2018-09-11T20:06:49.382Z,4.27
2018-09-11T20:09:16.712Z,4.83
2018-09-11T20:11:44.024Z,5.00
2018-09-11T20:14:11.269Z,4.43
2018-09-11T20:16:38.583Z,4.40
2018-09-11T20:19:06.183Z,4.40
2018-09-11T20:21:34.077Z,4.93
2018-09-11T20:24:01.331Z,3.90
2018-09-11T20:26:28.606Z,4.40
2018-09-11T20:28:56.140Z,5.10
2018-09-11T20:31:23.469Z,5.17
2018-09-11T20:33:50.740Z,4.80
2018-09-11T20:36:18.002Z,5.80
2018-09-11T20:38:45.440Z,6.50
2018-09-11T20:41:12.731Z,5.57
2018-09-11T20:43:40.114Z,6.00
2018-09-11T20:46:07.628Z,6.37
2018-09-11T20:48:35.538Z,5.63
2018-09-11T20:51:02.867Z,5.93
2018-09-11T20:53:30.300Z,6.60
2018-09-11T20:55:57.806Z,5.57
2018-09-11T20:58:25.305Z,6.00
2018-09-11T21:00:52.838Z,6.00
2018-09-11T21:03:20.259Z,5.43
2018-09-11T21:05:47.588Z,5.50
2018-09-11T21:08:15.179Z,5.70
2018-09-11T21:10:42.629Z,6.03
2018-09-11T21:13:09.956Z,5.83
2018-09-11T21:15:37.431Z,6.47
2018-09-11T21:18:04.871Z,5.27
2018-09-11T21:20:32.411Z,4.90
2018-09-11T21:22:59.600Z,6.13
2018-09-11T21:25:26.850Z,7.00
2018-09-11T21:27:54.529Z,5.33
2018-09-11T21:30:22.160Z,5.87
2018-09-11T21:32:49.750Z,5.27
2018-09-11T21:35:17.053Z,5.57
2018-09-11T21:37:44.265Z,5.03
2018-09-11T21:40:11.473Z,5.67
2018-09-11T21:42:38.789Z,5.30
2018-09-11T21:45:06.039Z,4.90
2018-09-11T21:47:33.291Z,4.23
2018-09-11T21:50:00.610Z,4.50
2018-09-11T21:52:27.873Z,3.90
2018-09-11T21:55:00.654Z,4.60
2018-09-11T21:57:31.116Z,3.67
2018-09-11T22:00:08.216Z,4.10
2018-09-11T22:02:58.649Z,3.23
2018-09-11T22:08:35.346Z,3.90
2018-09-11T22:11:12.934Z,3.73
2018-09-11T22:13:51.064Z,3.90
2018-09-11T22:16:23.334Z,4.10
2018-09-11T22:18:56.752Z,3.63
2018-09-11T22:21:30.775Z,4.33
2018-09-11T22:26:45.454Z,3.37
2018-09-11T22:29:12.946Z,3.70
2018-09-11T22:31:40.214Z,3.70
2018-09-11T22:34:23.212Z,4.00
2018-09-11T22:36:51.497Z,4.03
2018-09-11T22:39:18.774Z,3.90
2018-09-11T22:41:49.161Z,3.80
2018-09-11T22:44:16.381Z,3.97
2018-09-11T22:46:43.962Z,3.83
2018-09-11T22:49:11.564Z,3.90
2018-09-11T22:51:38.861Z,4.07
2018-09-11T22:54:06.317Z,4.23
2018-09-11T22:56:33.665Z,3.87
2018-09-11T22:59:01.040Z,4.30
2018-09-11T23:01:28.373Z,3.97
2018-09-11T23:03:55.825Z,4.00
2018-09-11T23:06:23.053Z,4.00
2018-09-11T23:08:50.289Z,3.80
2018-09-11T23:11:17.487Z,3.40
2018-09-11T23:13:44.734Z,4.07
2018-09-11T23:16:12.517Z,3.27
2018-09-11T23:18:40.144Z,3.87
2018-09-11T23:21:07.379Z,4.17
2018-09-11T23:23:34.612Z,3.60
2018-09-11T23:26:01.818Z,4.03
2018-09-11T23:28:29.089Z,3.73
2018-09-11T23:30:56.282Z,4.20
2018-09-11T23:33:23.518Z,3.67
2018-09-11T23:35:50.720Z,3.73
2018-09-11T23:38:18.061Z,3.60
2018-09-11T23:40:45.436Z,3.50
2018-09-11T23:43:12.893Z,3.53
2018-09-11T23:45:40.114Z,3.87
2018-09-11T23:48:07.317Z,3.57
2018-09-11T23:50:34.533Z,3.60
2018-09-11T23:53:02.096Z,4.00
2018-09-11T23:55:29.406Z,3.47
2018-09-11T23:57:56.592Z,3.77
